Time;durP1;ratioP1;P1;durP2;ratioP2;P2;SDS_P1;SDS_P2;PMS_P1;PMS_P2;Temp;Humidity;BMP_temperature;BMP_pressure;BME280_temperature;BME280_humidity;BME280_pressure;Samples;Min_cycle;Max_cycle;Signal;HPM_P1;HPM_P2
2021/06/15 00:00:46;;;;;;;;;8.50;8.50;;;;;27.92;30.45;101411.03;5082704;27;45371;-62
2021/06/15 00:03:11;;;;;;;;;9.50;8.25;;;;;27.89;30.42;101404.88;5134788;27;45314;-62
2021/06/15 00:05:37;;;;;;;;;8.25;8.25;;;;;27.88;30.44;101408.56;5108846;27;45407;-63
2021/06/15 00:08:03;;;;;;;;;9.00;9.00;;;;;27.87;30.72;101408.69;5100556;27;45284;-63
2021/06/15 00:10:28;;;;;;;;;9.50;9.50;;;;;27.74;30.18;101387.19;5110644;27;45347;-63
2021/06/15 00:12:55;;;;;;;;;8.75;8.75;;;;;27.82;29.96;101402.78;5114909;27;45393;-63
2021/06/15 00:15:21;;;;;;;;;10.00;9.00;;;;;27.79;30.54;101398.47;5100896;27;45297;-63
2021/06/15 00:17:48;;;;;;;;;8.50;8.50;;;;;27.79;30.77;101393.09;5100184;27;46183;-63
2021/06/15 00:20:14;;;;;;;;;7.75;7.25;;;;;27.77;31.04;101396.88;5111555;27;45173;-64
2021/06/15 00:22:42;;;;;;;;;8.00;6.75;;;;;27.73;30.38;101385.47;5084622;27;45287;-64
2021/06/15 00:25:08;;;;;;;;;8.25;8.00;;;;;27.72;31.02;101394.53;5082225;27;45502;-63
2021/06/15 00:27:34;;;;;;;;;9.00;8.00;;;;;27.68;30.96;101387.66;5101494;27;46282;-63
2021/06/15 00:29:59;;;;;;;;;7.50;7.50;;;;;27.67;31.20;101386.81;5100423;27;45329;-63
2021/06/15 00:32:25;;;;;;;;;7.75;7.75;;;;;27.61;30.71;101381.88;5100454;27;45261;-63
2021/06/15 00:34:51;;;;;;;;;6.75;6.25;;;;;27.63;30.46;101385.28;5100625;27;45408;-63
2021/06/15 00:37:17;;;;;;;;;10.00;9.25;;;;;27.61;31.29;101387.28;5100144;27;46023;-65
2021/06/15 00:39:42;;;;;;;;;8.50;8.50;;;;;27.57;30.97;101381.25;5100590;27;45191;-64
2021/06/15 00:42:08;;;;;;;;;7.00;7.00;;;;;27.54;31.27;101388.72;5100015;27;45474;-63
2021/06/15 00:44:34;;;;;;;;;10.50;8.75;;;;;27.52;30.90;101383.44;5100588;27;45327;-64
2021/06/15 00:47:00;;;;;;;;;9.00;8.75;;;;;27.50;31.02;101387.22;5081805;27;47322;-63
2021/06/15 00:49:32;;;;;;;;;9.50;7.50;;;;;27.46;31.12;101389.31;5100457;27;45202;-64
2021/06/15 00:51:58;;;;;;;;;9.00;8.00;;;;;27.42;30.82;101385.09;5081807;27;45232;-63
2021/06/15 00:54:24;;;;;;;;;8.75;8.50;;;;;27.40;31.25;101400.56;5100253;27;45256;-63
2021/06/15 00:56:50;;;;;;;;;9.00;9.00;;;;;27.38;30.98;101392.56;5099937;27;46245;-63
2021/06/15 00:59:15;;;;;;;;;8.75;7.25;;;;;27.36;31.57;101390.94;5102686;27;45295;-63
2021/06/15 01:01:41;;;;;;;;;7.50;7.50;;;;;27.32;31.26;101387.63;5103723;27;45414;-63
2021/06/15 01:04:07;;;;;;;;;10.25;8.50;;;;;27.30;31.27;101383.31;5103758;27;45335;-63
2021/06/15 01:06:52;;;;;;;;;8.00;7.25;;;;;27.26;31.28;101390.78;5103712;27;45356;-63
2021/06/15 01:09:39;;;;;;;;;9.50;9.25;;;;;27.22;31.75;101392.84;5103776;27;45288;-63
2021/06/15 01:12:46;;;;;;;;;8.75;7.25;;;;;27.20;31.13;101393.94;5115480;27;45342;-62
2021/06/15 01:15:22;;;;;;;;;11.00;8.75;;;;;27.16;31.27;101395.13;5115134;27;45390;-62
2021/06/15 01:18:10;;;;;;;;;8.25;8.25;;;;;27.13;31.23;101400.75;5104007;27;45290;-62
2021/06/15 01:20:41;;;;;;;;;7.25;7.25;;;;;27.07;31.83;101405.63;5116856;27;45297;-63
2021/06/15 01:23:28;;;;;;;;;8.25;8.25;;;;;27.05;31.85;101404.00;5103475;27;45498;-63
2021/06/15 01:26:06;;;;;;;;;6.25;6.00;;;;;27.00;31.56;101404.34;5103135;27;45306;-63
2021/06/15 01:28:44;;;;;;;;;9.00;9.00;;;;;26.92;31.58;101394.13;5104404;27;46049;-63
2021/06/15 01:31:15;;;;;;;;;8.00;7.00;;;;;26.93;31.62;101397.69;5111499;27;45382;-63
2021/06/15 01:33:44;;;;;;;;;7.75;7.25;;;;;26.91;31.58;101388.84;5094033;27;45530;-63
2021/06/15 01:36:13;;;;;;;;;8.00;8.00;;;;;26.89;32.20;101393.47;5134953;27;45259;-63
2021/06/15 01:38:44;;;;;;;;;8.25;7.25;;;;;26.88;32.17;101389.06;5106563;27;46468;-63
2021/06/15 01:41:13;;;;;;;;;9.75;7.50;;;;;26.86;31.93;101381.09;5084505;27;45312;-63
2021/06/15 01:43:49;;;;;;;;;9.75;6.75;;;;;26.84;32.14;101379.47;5102999;27;45311;-63
2021/06/15 01:46:19;;;;;;;;;7.00;7.00;;;;;26.83;32.28;101386.72;5103030;27;45489;-63
2021/06/15 01:48:53;;;;;;;;;8.50;8.00;;;;;26.82;32.00;101379.59;5102858;27;46190;-63
2021/06/15 01:51:24;;;;;;;;;9.75;8.25;;;;;26.80;31.77;101380.69;5102847;27;45362;-63
2021/06/15 01:53:59;;;;;;;;;9.50;8.00;;;;;26.77;32.39;101381.78;5103028;27;45385;-63
2021/06/15 01:56:29;;;;;;;;;10.25;9.00;;;;;26.75;32.42;101389.09;5102793;27;45299;-62
2021/06/15 01:58:57;;;;;;;;;8.00;7.00;;;;;26.64;31.52;101371.00;5102659;27;46503;-62
2021/06/15 02:01:27;;;;;;;;;8.75;7.00;;;;;26.72;31.72;101389.31;5084379;27;45317;-62
2021/06/15 02:03:55;;;;;;;;;10.25;10.25;;;;;26.67;31.97;101381.53;5102840;27;45271;-62
2021/06/15 02:06:22;;;;;;;;;8.00;8.00;;;;;26.67;31.99;101386.94;5134968;27;45328;-62
2021/06/15 02:08:51;;;;;;;;;8.50;7.00;;;;;26.62;32.50;101378.31;5110503;27;46201;-62
2021/06/15 02:11:18;;;;;;;;;9.25;8.75;;;;;26.57;31.94;101375.94;5118809;27;45495;-62
2021/06/15 02:13:46;;;;;;;;;9.75;9.00;;;;;26.54;31.95;101381.56;5110374;27;45321;-62
2021/06/15 02:16:14;;;;;;;;;9.00;9.00;;;;;26.54;32.44;101384.28;5102479;27;45663;-62
2021/06/15 02:18:44;;;;;;;;;10.25;8.25;;;;;26.52;31.97;101388.91;5084028;27;46273;-62
2021/06/15 02:21:14;;;;;;;;;10.25;9.00;;;;;26.34;32.56;101363.25;5116067;27;45316;-62
2021/06/15 02:23:43;;;;;;;;;10.25;8.75;;;;;26.46;32.15;101388.50;5102699;27;45172;-62
2021/06/15 02:26:13;;;;;;;;;8.75;7.75;;;;;26.44;32.15;101397.53;5102060;27;45505;-63
2021/06/15 02:28:39;;;;;;;;;8.50;8.50;;;;;26.41;32.56;101391.50;5085235;27;46512;-62
2021/06/15 02:31:09;;;;;;;;;8.50;8.50;;;;;26.39;32.75;101390.72;5102410;27;45339;-62
2021/06/15 02:33:40;;;;;;;;;9.00;9.00;;;;;26.34;32.34;101384.81;5102241;27;45357;-62
2021/06/15 02:36:14;;;;;;;;;5.00;5.00;;;;;26.32;32.76;101392.16;5102284;27;45382;-63
2021/06/15 02:38:48;;;;;;;;;6.75;6.75;;;;;26.28;32.84;101392.38;5102215;27;45274;-62
2021/06/15 02:41:15;;;;;;;;;7.25;7.25;;;;;26.21;32.54;101383.00;5101980;27;45262;-63
2021/06/15 02:43:42;;;;;;;;;6.75;6.75;;;;;26.21;33.13;101388.41;5102148;27;45163;-63
2021/06/15 02:46:15;;;;;;;;;7.25;7.00;;;;;26.17;32.96;101383.34;5102145;27;45489;-62
2021/06/15 02:48:43;;;;;;;;;6.25;6.00;;;;;26.15;33.10;101385.25;5101741;27;46869;-62
2021/06/15 02:51:09;;;;;;;;;9.00;8.50;;;;;26.11;33.03;101395.38;5083841;27;45402;-62
2021/06/15 02:53:52;;;;;;;;;9.75;8.25;;;;;26.09;32.85;101394.66;5101892;27;45268;-62
2021/06/15 02:56:22;;;;;;;;;9.50;9.50;;;;;26.06;32.71;101390.34;5101617;27;45347;-62
2021/06/15 02:58:48;;;;;;;;;7.00;7.00;;;;;26.05;33.21;101388.59;5101741;27;45347;-62
2021/06/15 03:01:14;;;;;;;;;6.75;5.50;;;;;26.03;32.98;101386.97;5101830;27;45413;-63
2021/06/15 03:03:39;;;;;;;;;9.50;7.50;;;;;26.01;32.84;101391.56;5101827;27;45307;-62
2021/06/15 03:06:05;;;;;;;;;7.00;6.00;;;;;25.99;33.05;101391.69;5101716;27;45173;-63
2021/06/15 03:08:35;;;;;;;;;8.00;7.25;;;;;25.96;32.78;101391.88;5101831;27;45346;-63
2021/06/15 03:11:04;;;;;;;;;7.25;7.25;;;;;25.90;32.93;101387.81;5099813;27;45428;-64
2021/06/15 03:13:52;;;;;;;;;8.50;7.00;;;;;25.92;33.06;101391.25;5111637;27;45469;-63
2021/06/15 03:16:22;;;;;;;;;9.00;8.25;;;;;25.91;33.50;101394.03;5108701;27;45319;-64
2021/06/15 03:19:11;;;;;;;;;8.25;8.25;;;;;25.87;33.04;101396.06;5107479;27;46165;-64
2021/06/15 03:21:48;;;;;;;;;9.00;8.25;;;;;25.86;32.99;101396.19;5109083;27;45313;-63
2021/06/15 03:24:26;;;;;;;;;8.00;7.00;;;;;25.79;33.46;101390.38;5104703;27;45326;-65
2021/06/15 03:27:09;;;;;;;;;8.50;8.00;;;;;25.78;33.57;101388.66;5101608;27;45243;-63
2021/06/15 03:29:37;;;;;;;;;9.50;9.25;;;;;25.78;33.29;101383.25;5109257;27;46783;-63
2021/06/15 03:32:08;;;;;;;;;11.00;8.75;;;;;25.75;33.37;101384.34;5091386;27;45390;-64
2021/06/15 03:34:39;;;;;;;;;8.00;8.00;;;;;25.73;33.54;101385.41;5133325;27;45339;-63
2021/06/15 03:37:05;;;;;;;;;7.50;7.50;;;;;25.70;33.26;101388.28;5104774;27;45242;-64
2021/06/15 03:39:33;;;;;;;;;9.00;8.00;;;;;25.69;33.42;101394.66;5066240;27;45905;-62
2021/06/15 03:42:01;;;;;;;;;7.50;7.50;;;;;25.67;33.81;101397.44;5100710;27;45318;-63
2021/06/15 03:44:27;;;;;;;;;10.00;10.00;;;;;25.61;33.41;101389.81;5101460;27;45418;-62
2021/06/15 03:46:55;;;;;;;;;7.00;5.75;;;;;25.58;33.34;101404.31;5101041;27;45490;-63
2021/06/15 03:49:22;;;;;;;;;12.75;12.75;;;;;25.58;33.71;101404.31;5124404;27;46387;-63
2021/06/15 03:51:59;;;;;;;;;8.75;8.75;;;;;25.54;33.54;101397.41;5118373;27;45342;-61
2021/06/15 03:54:27;;;;;;;;;11.25;9.25;;;;;25.53;33.95;101398.38;5101226;27;45479;-61
2021/06/15 03:56:56;;;;;;;;;10.50;9.00;;;;;25.51;33.85;101402.13;5107653;27;45197;-61
2021/06/15 03:59:27;;;;;;;;;10.00;10.00;;;;;25.48;33.73;101405.88;5107278;27;45435;-60
2021/06/15 04:01:55;;;;;;;;;14.00;10.00;;;;;25.45;33.78;101401.59;5082602;27;45288;-61
2021/06/15 04:04:22;;;;;;;;;10.50;9.50;;;;;25.44;33.93;101397.16;5082617;27;45326;-61
2021/06/15 04:06:50;;;;;;;;;11.00;8.00;;;;;25.43;34.03;101397.28;5082559;27;45437;-61
2021/06/15 04:09:22;;;;;;;;;11.00;9.75;;;;;25.40;33.65;101398.34;5130664;27;46058;-60
2021/06/15 04:11:51;;;;;;;;;10.00;8.75;;;;;25.39;33.69;101410.06;5110361;27;45493;-60
2021/06/15 04:14:17;;;;;;;;;12.00;11.50;;;;;25.38;33.95;101400.25;5103995;27;45283;-60
2021/06/15 04:16:44;;;;;;;;;10.50;9.75;;;;;25.37;33.72;101403.06;5100775;27;45503;-62
2021/06/15 04:19:36;;;;;;;;;10.50;10.50;;;;;25.34;33.73;101397.88;5102356;27;46355;-61
2021/06/15 04:22:05;;;;;;;;;12.75;11.00;;;;;25.31;34.19;101394.41;5108468;27;45342;-61
2021/06/15 04:24:32;;;;;;;;;11.00;11.00;;;;;25.31;33.93;101396.25;5100494;27;45310;-61
2021/06/15 04:26:58;;;;;;;;;13.50;13.50;;;;;25.26;33.71;101393.84;5083023;27;45511;-61
2021/06/15 04:29:25;;;;;;;;;10.75;10.75;;;;;25.24;34.01;101394.91;5100495;27;46941;-61
2021/06/15 04:31:55;;;;;;;;;9.75;9.75;;;;;25.25;33.74;101402.03;5101382;27;45323;-61
2021/06/15 04:34:24;;;;;;;;;12.25;11.75;;;;;25.23;34.16;101407.50;5107584;27;45356;-61
2021/06/15 04:36:54;;;;;;;;;13.00;11.00;;;;;25.23;33.85;101414.69;5107268;27;45448;-61
2021/06/15 04:39:22;;;;;;;;;14.50;13.00;;;;;25.21;34.11;101412.13;5107288;27;45703;-61
2021/06/15 04:42:00;;;;;;;;;23.50;22.50;;;;;25.21;34.32;101419.34;5106673;27;45445;-61
2021/06/15 04:44:30;;;;;;;;;16.00;14.00;;;;;25.19;34.04;101414.03;5107368;27;45325;-61
2021/06/15 04:47:00;;;;;;;;;20.50;17.50;;;;;25.19;33.97;101422.09;5106982;27;45468;-61
2021/06/15 04:49:35;;;;;;;;;15.50;15.50;;;;;25.18;34.07;101422.22;5088916;27;45482;-61
2021/06/15 04:52:03;;;;;;;;;13.25;12.25;;;;;25.18;34.25;101430.28;5113711;27;45273;-62
2021/06/15 04:54:38;;;;;;;;;15.50;14.00;;;;;25.17;34.26;101426.72;5113594;27;45375;-61
2021/06/15 04:57:12;;;;;;;;;14.75;14.75;;;;;25.14;34.35;101432.28;5106743;27;45382;-61
2021/06/15 04:59:39;;;;;;;;;15.00;14.75;;;;;25.15;34.29;101436.72;5106833;27;46094;-61
2021/06/15 05:02:07;;;;;;;;;10.00;10.00;;;;;25.12;34.25;101431.56;5106872;27;45369;-61
2021/06/15 05:04:33;;;;;;;;;14.75;14.25;;;;;25.08;34.11;101432.69;5088585;27;45332;-61
2021/06/15 05:07:00;;;;;;;;;15.00;13.00;;;;;25.09;34.22;101439.81;5106856;27;45342;-60
2021/06/15 05:09:27;;;;;;;;;14.75;13.00;;;;;25.12;34.50;101436.94;5107384;27;45482;-61
2021/06/15 05:11:55;;;;;;;;;12.50;12.50;;;;;25.11;34.33;101440.56;5108421;27;45347;-61
2021/06/15 05:14:24;;;;;;;;;12.50;11.00;;;;;25.12;34.45;101435.09;5108950;27;45278;-61
2021/06/15 05:16:50;;;;;;;;;15.25;12.00;;;;;25.13;34.30;101442.19;5106747;27;45448;-60
2021/06/15 05:19:15;;;;;;;;;15.25;11.00;;;;;25.12;34.54;101442.31;5109157;27;45504;-65
2021/06/15 05:21:47;;;;;;;;;12.50;12.50;;;;;25.13;34.52;101449.38;5117773;27;45276;-67
2021/06/15 05:24:29;;;;;;;;;10.75;10.75;;;;;25.13;34.64;101461.03;5113697;27;45373;-66
2021/06/15 05:26:54;;;;;;;;;11.00;10.50;;;;;25.13;37.15;101457.44;5135119;27;45321;-55
2021/06/15 05:29:19;;;;;;;;;12.75;11.25;;;;;25.02;37.64;101459.97;5120150;27;45363;-56
2021/06/15 05:31:45;;;;;;;;;14.50;11.00;;;;;24.89;38.61;101466.16;5106555;27;45343;-55
2021/06/15 05:34:10;;;;;;;;;13.75;11.00;;;;;24.79;38.47;101455.13;5106557;27;45436;-56
2021/06/15 05:36:37;;;;;;;;;9.75;9.75;;;;;24.75;38.84;101460.78;5088277;27;45269;-54
2021/06/15 05:39:02;;;;;;;;;10.00;10.00;;;;;24.60;39.23;101458.06;5106355;27;46142;-49
2021/06/15 05:41:28;;;;;;;;;10.25;10.25;;;;;24.58;39.70;101459.97;5106285;27;45371;-51
2021/06/15 05:43:53;;;;;;;;;15.25;12.75;;;;;24.53;39.97;101458.50;5103817;27;45316;-56
2021/06/15 05:46:18;;;;;;;;;13.75;11.50;;;;;24.55;39.87;101468.19;5103099;27;45288;-49
2021/06/15 05:48:44;;;;;;;;;14.00;13.00;;;;;24.56;40.18;101469.94;5101572;27;48187;-50
2021/06/15 05:51:09;;;;;;;;;11.00;11.00;;;;;24.57;40.28;101466.31;5103144;27;45382;-51
2021/06/15 05:53:35;;;;;;;;;12.50;11.50;;;;;24.51;40.64;101466.69;5101935;27;45514;-52
2021/06/15 05:56:00;;;;;;;;;14.75;11.50;;;;;24.54;40.61;101471.88;5102187;27;45653;-49
2021/06/15 05:58:26;;;;;;;;;12.25;10.75;;;;;24.55;40.41;101459.28;5102096;27;46231;-50
2021/06/15 06:00:51;;;;;;;;;13.25;13.25;;;;;24.57;40.28;101473.50;5102320;27;45220;-47
2021/06/15 06:03:38;;;;;;;;;11.00;11.00;;;;;24.58;40.61;101475.22;5102829;27;45174;-48
2021/06/15 06:08:46;;;;;;;;;15.25;14.00;;;;;24.60;40.95;101466.13;5102737;27;45729;-48
2021/06/15 06:11:11;;;;;;;;;15.75;15.25;;;;;24.62;40.51;101472.25;5117750;27;45313;-48
2021/06/15 06:13:36;;;;;;;;;13.50;13.00;;;;;24.60;41.28;101481.34;5111871;27;45825;-47
2021/06/15 06:16:08;;;;;;;;;13.75;12.00;;;;;24.55;41.01;101468.19;5102490;27;45568;-51
2021/06/15 06:18:33;;;;;;;;;14.75;14.00;;;;;24.53;40.74;101469.25;5085140;27;47114;-61
2021/06/15 06:20:59;;;;;;;;;16.75;14.75;;;;;24.50;39.98;101476.56;5117441;27;45401;-59
2021/06/15 06:23:24;;;;;;;;;15.75;14.00;;;;;24.48;39.91;101469.56;5113193;27;45319;-59
2021/06/15 06:25:49;;;;;;;;;14.25;14.25;;;;;24.55;40.02;101465.50;5123062;27;45374;-58
2021/06/15 06:28:15;;;;;;;;;16.00;15.50;;;;;24.60;39.62;101471.50;5094289;27;47057;-60
2021/06/15 06:30:40;;;;;;;;;17.00;15.50;;;;;24.65;39.43;101472.09;5102329;27;45348;-59
2021/06/15 06:33:06;;;;;;;;;15.50;14.25;;;;;24.69;39.28;101466.53;5102616;27;45310;-59
2021/06/15 06:35:31;;;;;;;;;15.00;14.25;;;;;24.67;39.21;101467.47;5102233;27;45177;-59
2021/06/15 06:37:56;;;;;;;;;14.00;14.00;;;;;24.73;38.87;101471.63;5102987;27;45233;-60
2021/06/15 06:40:22;;;;;;;;;20.25;17.00;;;;;24.78;38.97;101471.31;5106189;27;45314;-60
2021/06/15 06:42:47;;;;;;;;;14.75;13.75;;;;;24.82;38.86;101473.72;5102375;27;45310;-60
2021/06/15 06:45:13;;;;;;;;;19.00;18.00;;;;;24.85;38.74;101471.81;5102040;27;45300;-59
2021/06/15 06:47:39;;;;;;;;;17.00;15.50;;;;;24.89;38.76;101460.78;5102287;27;46907;-60
2021/06/15 06:50:06;;;;;;;;;15.50;14.75;;;;;24.93;38.46;101469.47;5102097;27;45343;-60
2021/06/15 06:52:31;;;;;;;;;14.25;13.50;;;;;24.96;38.48;101470.16;5102188;27;45323;-60
2021/06/15 06:54:57;;;;;;;;;16.75;16.00;;;;;24.98;38.66;101468.25;5101642;27;45616;-60
2021/06/15 06:57:22;;;;;;;;;15.00;13.00;;;;;25.04;38.52;101474.19;5101836;27;45363;-60
2021/06/15 06:59:48;;;;;;;;;20.25;16.25;;;;;25.03;38.10;101457.19;5101894;27;45304;-59
2021/06/15 07:02:13;;;;;;;;;15.50;14.25;;;;;25.10;38.36;101463.03;5102221;27;45321;-61
2021/06/15 07:04:40;;;;;;;;;15.50;15.50;;;;;25.14;38.02;101464.56;5101966;27;45290;-59
2021/06/15 07:07:06;;;;;;;;;14.50;14.50;;;;;25.17;38.13;101458.13;5102148;27;45268;-59
2021/06/15 07:09:31;;;;;;;;;15.00;15.00;;;;;25.21;38.41;101468.59;5103437;27;45220;-59
2021/06/15 07:11:56;;;;;;;;;16.00;14.50;;;;;25.24;38.02;101465.69;5113711;27;45176;-61
2021/06/15 07:14:22;;;;;;;;;19.75;16.75;;;;;25.26;38.03;101461.09;5106075;27;45220;-59
2021/06/15 07:16:47;;;;;;;;;18.75;16.25;;;;;25.34;38.01;101474.03;5101677;27;45141;-61
2021/06/15 07:19:13;;;;;;;;;13.25;13.00;;;;;25.31;37.78;101468.84;5085527;27;45327;-61
2021/06/15 07:21:38;;;;;;;;;19.00;17.50;;;;;25.39;38.00;101477.31;5109811;27;45497;-61
2021/06/15 07:24:04;;;;;;;;;15.50;15.50;;;;;25.41;38.05;101472.69;5087309;27;45518;-60
2021/06/15 07:26:29;;;;;;;;;18.00;15.25;;;;;25.46;37.88;101469.72;5121924;27;45299;-61
2021/06/15 07:28:54;;;;;;;;;17.75;14.50;;;;;25.49;37.58;101474.88;5107296;27;46443;-61
2021/06/15 07:31:20;;;;;;;;;16.00;15.50;;;;;25.53;37.71;101472.84;5103171;27;45229;-61
2021/06/15 07:33:45;;;;;;;;;14.75;13.25;;;;;25.55;37.77;101463.72;5106636;27;45210;-61
2021/06/15 07:36:10;;;;;;;;;17.25;14.25;;;;;25.60;37.64;101471.50;5101419;27;45998;-60
2021/06/15 07:38:36;;;;;;;;;14.25;12.00;;;;;25.60;37.55;101463.41;5101541;27;45216;-61
2021/06/15 07:41:02;;;;;;;;;14.75;14.25;;;;;25.67;37.60;101467.41;5101401;27;45491;-62
2021/06/15 07:43:28;;;;;;;;;18.25;14.00;;;;;25.69;37.90;101464.63;5101008;27;45325;-61
2021/06/15 07:45:54;;;;;;;;;19.25;17.75;;;;;25.73;37.82;101466.16;5101031;27;46302;-61
2021/06/15 07:48:22;;;;;;;;;15.00;15.00;;;;;25.75;37.38;101465.06;5101140;27;45256;-61
2021/06/15 07:50:47;;;;;;;;;18.25;16.00;;;;;25.78;37.71;101458.63;5101540;27;45429;-61
2021/06/15 07:53:13;;;;;;;;;18.00;15.25;;;;;25.80;37.71;101465.63;5100984;27;45230;-61
2021/06/15 07:55:38;;;;;;;;;16.25;15.00;;;;;25.81;37.68;101461.13;5100938;27;45167;-61
2021/06/15 07:58:03;;;;;;;;;16.00;14.25;;;;;25.84;37.47;101460.91;5100925;27;45221;-61
2021/06/15 08:00:29;;;;;;;;;18.00;17.00;;;;;25.87;37.52;101457.97;5101470;27;45282;-61
2021/06/15 08:02:54;;;;;;;;;19.50;18.25;;;;;25.90;37.35;101455.09;5101081;27;45462;-61
2021/06/15 08:05:20;;;;;;;;;18.50;17.75;;;;;25.94;37.00;101458.44;5100968;27;46243;-61
2021/06/15 08:07:51;;;;;;;;;18.00;17.00;;;;;25.97;37.12;101466.31;5100130;27;45176;-61
2021/06/15 08:10:19;;;;;;;;;18.50;16.75;;;;;25.98;37.45;101453.72;5109062;27;45303;-61
2021/06/15 08:12:45;;;;;;;;;15.75;15.25;;;;;26.06;37.34;101451.38;5105057;27;45467;-61
2021/06/15 08:15:10;;;;;;;;;15.75;14.75;;;;;26.12;37.41;101448.28;5100885;27;45236;-61
2021/06/15 08:17:37;;;;;;;;;17.25;16.25;;;;;26.16;37.38;101451.63;5100494;27;45224;-61
2021/06/15 08:20:03;;;;;;;;;18.50;16.75;;;;;26.20;37.04;101451.31;5105459;27;45319;-61
2021/06/15 08:22:29;;;;;;;;;18.00;15.75;;;;;26.23;37.06;101450.22;5121266;27;45451;-60
2021/06/15 08:24:54;;;;;;;;;21.75;17.50;;;;;26.28;36.96;101440.84;5121075;27;46382;-60
2021/06/15 08:27:20;;;;;;;;;17.75;17.75;;;;;26.34;36.76;101444.06;5121002;27;45386;-60
2021/06/15 08:29:45;;;;;;;;;20.00;18.25;;;;;26.38;36.97;101441.06;5121358;27;45397;-61
2021/06/15 08:32:10;;;;;;;;;20.25;16.50;;;;;26.44;36.99;101445.19;5121294;27;45456;-61
2021/06/15 08:34:37;;;;;;;;;18.75;17.00;;;;;26.41;36.82;101437.28;5102454;27;48131;-61
2021/06/15 08:37:03;;;;;;;;;22.50;19.75;;;;;26.50;36.68;101446.56;5121275;27;45217;-60
2021/06/15 08:39:28;;;;;;;;;18.25;17.25;;;;;26.55;36.53;101447.09;5102815;27;45315;-61
2021/06/15 08:41:53;;;;;;;;;21.50;18.50;;;;;26.58;37.30;101446.91;5120816;27;45231;-61
2021/06/15 08:44:19;;;;;;;;;20.00;17.00;;;;;26.65;37.17;101445.47;5120913;27;45577;-60
2021/06/15 08:46:45;;;;;;;;;18.50;18.50;;;;;26.71;36.59;101438.78;5121241;27;45219;-60
2021/06/15 08:49:11;;;;;;;;;18.75;16.50;;;;;26.76;37.32;101436.66;5120980;27;45372;-60
2021/06/15 08:51:37;;;;;;;;;20.25;19.25;;;;;26.83;37.01;101446.03;5085517;27;45559;-60
2021/06/15 08:54:07;;;;;;;;;18.00;16.25;;;;;26.88;36.74;101443.84;5120648;27;46638;-60
2021/06/15 08:56:34;;;;;;;;;16.75;15.25;;;;;26.94;36.61;101439.84;5120736;27;45318;-60
2021/06/15 08:59:20;;;;;;;;;12.75;12.75;;;;;27.01;36.66;101441.13;5120679;27;45256;-60
2021/06/15 09:01:52;;;;;;;;;15.50;15.25;;;;;27.13;36.79;101446.59;5120577;27;45589;-60
2021/06/15 09:04:17;;;;;;;;;17.75;16.50;;;;;27.20;36.23;101445.19;5120855;27;45258;-60
2021/06/15 09:06:43;;;;;;;;;17.00;16.25;;;;;27.24;36.55;101438.56;5102290;27;45272;-60
2021/06/15 09:09:09;;;;;;;;;17.50;15.50;;;;;27.32;36.90;101446.97;5121059;27;45299;-60
2021/06/15 09:11:51;;;;;;;;;12.75;12.00;;;;;27.39;36.84;101444.66;5104692;27;45592;-60
2021/06/15 09:14:18;;;;;;;;;13.75;13.25;;;;;27.44;36.19;101436.28;5100069;27;46053;-60
2021/06/15 09:16:46;;;;;;;;;17.25;14.25;;;;;27.50;36.14;101439.34;5099933;27;45183;-60
2021/06/15 09:19:21;;;;;;;;;14.75;14.75;;;;;27.60;36.22;101444.03;5082587;27;45254;-60
2021/06/15 09:21:48;;;;;;;;;17.25;16.25;;;;;27.64;36.35;101441.00;5122922;27;45506;-60
2021/06/15 09:24:13;;;;;;;;;14.00;14.00;;;;;27.70;36.39;101445.94;5123982;27;46039;-60
2021/06/15 09:27:08;;;;;;;;;16.50;15.75;;;;;27.77;36.56;101449.03;5123500;27;45326;-61
2021/06/15 09:29:54;;;;;;;;;22.00;18.00;;;;;27.84;36.42;101447.59;5105565;27;45395;-60
2021/06/15 09:32:22;;;;;;;;;20.50;18.25;;;;;27.89;35.82;101441.84;5111721;27;45342;-61
2021/06/15 09:34:52;;;;;;;;;13.75;13.75;;;;;27.93;36.30;101440.63;5103056;27;46121;-60
2021/06/15 09:37:29;;;;;;;;;15.50;14.25;;;;;28.00;35.93;101436.47;5103263;27;45271;-60
2021/06/15 09:39:54;;;;;;;;;20.50;18.25;;;;;28.04;35.98;101442.53;5111461;27;45287;-60
2021/06/15 09:42:19;;;;;;;;;14.00;13.00;;;;;28.11;36.13;101441.06;5123370;27;45399;-60
2021/06/15 09:44:45;;;;;;;;;15.75;13.00;;;;;28.17;35.60;101439.72;5123927;27;46287;-60
2021/06/15 09:47:11;;;;;;;;;15.00;13.25;;;;;28.25;35.95;101433.72;5105193;27;45318;-60
2021/06/15 09:49:39;;;;;;;;;14.25;13.75;;;;;28.31;35.28;101431.38;5124063;27;45509;-61
2021/06/15 09:52:14;;;;;;;;;15.00;13.50;;;;;28.40;35.35;101437.91;5123659;27;45283;-60
2021/06/15 09:54:51;;;;;;;;;16.00;15.25;;;;;28.48;35.43;101440.88;5123469;27;46498;-60
2021/06/15 09:57:33;;;;;;;;;14.75;13.50;;;;;28.58;34.86;101445.53;5123223;27;45343;-60
2021/06/15 10:00:08;;;;;;;;;19.00;17.00;;;;;28.63;35.35;101435.22;5123633;27;45236;-60
2021/06/15 10:02:35;;;;;;;;;13.25;12.50;;;;;28.72;35.65;101455.28;5104882;27;45703;-60
2021/06/15 10:05:19;;;;;;;;;14.25;14.00;;;;;28.83;35.54;101441.75;5123296;27;45256;-62
2021/06/15 10:07:44;;;;;;;;;14.00;13.00;;;;;28.91;35.34;101450.13;5105173;27;45373;-62
2021/06/15 10:10:10;;;;;;;;;14.25;13.25;;;;;29.00;35.11;101452.06;5119756;27;45423;-61
2021/06/15 10:12:36;;;;;;;;;14.75;13.00;;;;;29.08;34.99;101454.16;5102563;27;45433;-59
2021/06/15 10:15:03;;;;;;;;;16.00;15.00;;;;;29.13;34.92;101446.53;5102289;27;46276;-59
2021/06/15 10:17:29;;;;;;;;;14.00;13.00;;;;;29.24;34.58;101447.47;5102686;27;45384;-60
2021/06/15 10:19:54;;;;;;;;;13.25;13.25;;;;;29.31;34.63;101438.75;5092019;27;45427;-60
2021/06/15 10:22:21;;;;;;;;;14.50;12.25;;;;;29.37;34.80;101432.00;5123113;27;45440;-60
2021/06/15 10:24:50;;;;;;;;;13.00;13.00;;;;;29.48;34.69;101444.59;5122998;27;46266;-61
2021/06/15 10:27:15;;;;;;;;;13.75;13.75;;;;;29.60;34.56;101438.16;5104274;27;45742;-60
2021/06/15 10:29:48;;;;;;;;;13.50;10.50;;;;;29.70;34.18;101435.53;5122456;27;45165;-61
2021/06/15 10:32:24;;;;;;;;;11.25;11.25;;;;;29.78;33.95;101429.47;5123206;27;45347;-60
2021/06/15 10:35:06;;;;;;;;;11.00;11.00;;;;;29.91;33.65;101432.00;5122935;27;46134;-60
2021/06/15 10:37:31;;;;;;;;;11.50;10.50;;;;;30.01;33.92;101435.63;5122830;27;45285;-59
2021/06/15 10:39:58;;;;;;;;;14.50;14.25;;;;;30.12;33.79;101435.56;5123204;27;45445;-60
2021/06/15 10:42:24;;;;;;;;;15.25;11.50;;;;;30.30;34.11;101437.66;5122758;27;45279;-59
2021/06/15 10:45:11;;;;;;;;;11.50;11.50;;;;;30.57;34.19;101425.44;5122651;27;45339;-59
2021/06/15 10:47:37;;;;;;;;;11.50;11.50;;;;;30.90;34.93;101429.66;5104411;27;45737;-59
2021/06/15 10:50:03;;;;;;;;;16.25;16.00;;;;;31.34;35.36;101433.94;5122882;27;45371;-59
2021/06/15 10:52:58;;;;;;;;;15.50;11.00;;;;;31.90;35.25;101429.63;5104079;27;45656;-59
2021/06/15 10:55:50;;;;;;;;;13.00;10.50;;;;;32.57;35.79;101421.47;5122261;27;47194;-59
2021/06/15 10:58:36;;;;;;;;;12.25;11.25;;;;;33.31;35.48;101422.38;5122532;27;45273;-59
2021/06/15 11:01:16;;;;;;;;;10.50;10.00;;;;;34.02;35.49;101426.03;5080184;27;45287;-59
2021/06/15 11:03:50;;;;;;;;;11.00;10.25;;;;;34.70;35.45;101420.81;5122409;27;45326;-59
2021/06/15 11:06:16;;;;;;;;;9.00;9.00;;;;;35.35;35.29;101415.72;5122655;27;46066;-58
2021/06/15 11:08:42;;;;;;;;;7.50;7.50;;;;;35.98;34.32;101414.22;5104261;27;45463;-58
2021/06/15 11:11:17;;;;;;;;;7.25;7.25;;;;;36.62;34.10;101420.72;5110456;27;45219;-59
2021/06/15 11:13:54;;;;;;;;;11.50;11.00;;;;;37.28;33.96;101414.91;5101212;27;45401;-60
2021/06/15 11:16:27;;;;;;;;;13.50;12.00;;;;;37.95;33.63;101408.72;5121338;27;47158;-59
2021/06/15 11:22:09;;;;;;;;;15.00;14.25;;;;;39.33;33.24;101405.44;5119007;27;45426;-59
2021/06/15 11:24:45;;;;;;;;;9.25;9.25;;;;;39.91;32.44;101412.69;5114192;27;45460;-60
2021/06/15 11:27:11;;;;;;;;;17.00;15.50;;;;;40.21;31.30;101407.00;5121631;27;46040;-59
2021/06/15 11:29:41;;;;;;;;;16.25;14.75;;;;;40.29;30.42;101407.69;5121197;27;45480;-61